sensor_id;sensor_type;location;lat;lon;timestamp;pressure;altitude;pressure_sealevel;temperature;humidity
69982;BME280;57319;56.274;43.980;2023-04-29T00:01:11;99303.00;;;11.73;68.04
69982;BME280;57319;56.274;43.980;2023-04-29T00:03:36;99299.56;;;11.73;67.67
69982;BME280;57319;56.274;43.980;2023-04-29T00:06:02;99297.91;;;11.70;67.95
69982;BME280;57319;56.274;43.980;2023-04-29T00:08:28;99301.38;;;11.69;67.56
69982;BME280;57319;56.274;43.980;2023-04-29T00:10:53;99298.03;;;11.65;67.93
69982;BME280;57319;56.274;43.980;2023-04-29T00:13:19;99296.41;;;11.61;68.20
69982;BME280;57319;56.274;43.980;2023-04-29T00:15:45;99293.88;;;11.60;68.57
69982;BME280;57319;56.274;43.980;2023-04-29T00:18:11;99290.53;;;11.56;68.71
69982;BME280;57319;56.274;43.980;2023-04-29T00:20:38;99290.56;;;11.54;68.73
69982;BME280;57319;56.274;43.980;2023-04-29T00:23:04;99288.91;;;11.52;68.69
69982;BME280;57319;56.274;43.980;2023-04-29T00:25:31;99286.50;;;11.46;68.78
69982;BME280;57319;56.274;43.980;2023-04-29T00:27:57;99285.69;;;11.42;69.13
69982;BME280;57319;56.274;43.980;2023-04-29T00:30:27;99278.81;;;11.43;68.91
69982;BME280;57319;56.274;43.980;2023-04-29T00:32:53;99292.50;;;11.45;68.71
69982;BME280;57319;56.274;43.980;2023-04-29T00:35:20;99292.50;;;11.45;68.45
69982;BME280;57319;56.274;43.980;2023-04-29T00:37:46;99291.69;;;11.43;68.64
69982;BME280;57319;56.274;43.980;2023-04-29T00:40:12;99285.78;;;11.39;68.64
69982;BME280;57319;56.274;43.980;2023-04-29T00:42:40;99278.06;;;11.39;68.50
69982;BME280;57319;56.274;43.980;2023-04-29T00:45:09;99278.94;;;11.38;68.57
69982;BME280;57319;56.274;43.980;2023-04-29T00:47:38;99279.72;;;11.42;68.33
69982;BME280;57319;56.274;43.980;2023-04-29T00:50:05;99277.06;;;11.45;67.81
69982;BME280;57319;56.274;43.980;2023-04-29T00:52:32;99276.94;;;11.49;67.10
69982;BME280;57319;56.274;43.980;2023-04-29T00:54:58;99281.09;;;11.55;66.69
69982;BME280;57319;56.274;43.980;2023-04-29T00:57:24;99272.34;;;11.61;66.62
69982;BME280;57319;56.274;43.980;2023-04-29T00:59:54;99263.66;;;11.65;66.06
69982;BME280;57319;56.274;43.980;2023-04-29T01:02:19;99269.59;;;11.68;66.05
69982;BME280;57319;56.274;43.980;2023-04-29T01:04:46;99270.44;;;11.70;66.04
69982;BME280;57319;56.274;43.980;2023-04-29T01:07:25;99268.59;;;11.74;65.90
69982;BME280;57319;56.274;43.980;2023-04-29T01:10:08;99278.03;;;11.75;65.26
69982;BME280;57319;56.274;43.980;2023-04-29T01:15:09;99270.16;;;11.80;64.90
69982;BME280;57319;56.274;43.980;2023-04-29T01:17:43;99268.41;;;11.82;64.61
69982;BME280;57319;56.274;43.980;2023-04-29T01:20:09;99273.47;;;11.85;64.27
69982;BME280;57319;56.274;43.980;2023-04-29T01:22:36;99261.44;;;11.85;64.40
69982;BME280;57319;56.274;43.980;2023-04-29T01:25:04;99262.22;;;11.89;64.20
69982;BME280;57319;56.274;43.980;2023-04-29T01:27:38;99255.28;;;11.91;64.41
69982;BME280;57319;56.274;43.980;2023-04-29T01:30:27;99259.50;;;11.94;63.82
69982;BME280;57319;56.274;43.980;2023-04-29T01:33:02;99260.31;;;11.97;63.50
69982;BME280;57319;56.274;43.980;2023-04-29T01:35:52;99263.72;;;11.99;63.12
69982;BME280;57319;56.274;43.980;2023-04-29T01:41:17;99270.47;;;12.03;63.03
69982;BME280;57319;56.274;43.980;2023-04-29T01:43:50;99279.84;;;12.06;62.76
69982;BME280;57319;56.274;43.980;2023-04-29T01:46:17;99270.34;;;12.08;62.59
69982;BME280;57319;56.274;43.980;2023-04-29T01:48:45;99272.09;;;12.08;62.45
69982;BME280;57319;56.274;43.980;2023-04-29T01:51:11;99278.91;;;12.09;62.67
69982;BME280;57319;56.274;43.980;2023-04-29T01:53:37;99282.34;;;12.09;62.48
69982;BME280;57319;56.274;43.980;2023-04-29T01:56:06;99278.91;;;12.09;62.42
69982;BME280;57319;56.274;43.980;2023-04-29T01:58:32;99278.03;;;12.10;62.48
69982;BME280;57319;56.274;43.980;2023-04-29T02:00:58;99278.91;;;12.09;62.27
69982;BME280;57319;56.274;43.980;2023-04-29T02:03:23;99277.16;;;12.11;62.08
69982;BME280;57319;56.274;43.980;2023-04-29T02:05:49;99276.22;;;12.13;61.91
69982;BME280;57319;56.274;43.980;2023-04-29T02:08:16;99278.72;;;12.16;61.88
69982;BME280;57319;56.274;43.980;2023-04-29T02:10:53;99288.06;;;12.20;61.25
69982;BME280;57319;56.274;43.980;2023-04-29T02:13:19;99289.59;;;12.28;61.22
69982;BME280;57319;56.274;43.980;2023-04-29T02:15:45;99290.38;;;12.31;61.39
69982;BME280;57319;56.274;43.980;2023-04-29T02:18:11;99277.41;;;12.33;60.69
69982;BME280;57319;56.274;43.980;2023-04-29T02:20:36;99284.16;;;12.38;60.95
69982;BME280;57319;56.274;43.980;2023-04-29T02:23:02;99286.56;;;12.45;60.51
69982;BME280;57319;56.274;43.980;2023-04-29T02:25:28;99286.47;;;12.48;60.43
69982;BME280;57319;56.274;43.980;2023-04-29T02:27:53;99282.06;;;12.51;60.28
69982;BME280;57319;56.274;43.980;2023-04-29T02:30:19;99286.25;;;12.55;59.94
69982;BME280;57319;56.274;43.980;2023-04-29T02:32:45;99291.25;;;12.62;59.72
69982;BME280;57319;56.274;43.980;2023-04-29T02:35:10;99291.91;;;12.68;59.54
69982;BME280;57319;56.274;43.980;2023-04-29T02:37:37;99296.88;;;12.75;59.10
69982;BME280;57319;56.274;43.980;2023-04-29T02:40:03;99300.19;;;12.80;59.10
69982;BME280;57319;56.274;43.980;2023-04-29T02:42:30;99302.63;;;12.86;58.71
69982;BME280;57319;56.274;43.980;2023-04-29T02:44:56;99305.00;;;12.92;58.43
69982;BME280;57319;56.274;43.980;2023-04-29T02:47:22;99295.38;;;12.97;58.33
69982;BME280;57319;56.274;43.980;2023-04-29T02:49:48;99303.03;;;13.00;58.15
69982;BME280;57319;56.274;43.980;2023-04-29T02:52:14;99296.94;;;13.03;58.20
69982;BME280;57319;56.274;43.980;2023-04-29T02:54:41;99295.94;;;13.07;58.00
69982;BME280;57319;56.274;43.980;2023-04-29T02:57:07;99293.25;;;13.10;57.68
69982;BME280;57319;56.274;43.980;2023-04-29T02:59:33;99291.34;;;13.17;57.82
69982;BME280;57319;56.274;43.980;2023-04-29T03:01:59;99290.47;;;13.18;57.27
69982;BME280;57319;56.274;43.980;2023-04-29T03:04:26;99295.38;;;13.26;56.89
69982;BME280;57319;56.274;43.980;2023-04-29T03:06:55;99299.59;;;13.28;57.11
69982;BME280;57319;56.274;43.980;2023-04-29T03:09:21;99297.66;;;13.36;56.99
69982;BME280;57319;56.274;43.980;2023-04-29T03:11:48;99287.25;;;13.39;56.54
69982;BME280;57319;56.274;43.980;2023-04-29T03:14:14;99293.03;;;13.46;56.38
69982;BME280;57319;56.274;43.980;2023-04-29T03:16:40;99293.00;;;13.48;56.38
69982;BME280;57319;56.274;43.980;2023-04-29T03:19:05;99297.13;;;13.53;56.23
69982;BME280;57319;56.274;43.980;2023-04-29T03:21:31;99301.22;;;13.61;55.98
69982;BME280;57319;56.274;43.980;2023-04-29T03:23:57;99298.53;;;13.64;55.92
69982;BME280;57319;56.274;43.980;2023-04-29T03:26:23;99301.81;;;13.69;55.78
69982;BME280;57319;56.274;43.980;2023-04-29T03:28:49;99301.56;;;13.77;55.63
69982;BME280;57319;56.274;43.980;2023-04-29T03:31:15;99308.34;;;13.79;55.66
69982;BME280;57319;56.274;43.980;2023-04-29T03:33:42;99304.75;;;13.85;55.57
69982;BME280;57319;56.274;43.980;2023-04-29T03:36:07;99307.13;;;13.91;55.25
69982;BME280;57319;56.274;43.980;2023-04-29T03:38:34;99300.09;;;13.95;55.19
69982;BME280;57319;56.274;43.980;2023-04-29T03:41:00;99309.41;;;14.00;55.12
69982;BME280;57319;56.274;43.980;2023-04-29T03:43:26;99305.81;;;14.04;55.10
69982;BME280;57319;56.274;43.980;2023-04-29T03:45:51;99291.75;;;14.12;54.94
69982;BME280;57319;56.274;43.980;2023-04-29T03:48:17;99300.94;;;14.20;54.82
69982;BME280;57319;56.274;43.980;2023-04-29T03:50:44;99299.72;;;14.31;54.55
69982;BME280;57319;56.274;43.980;2023-04-29T03:53:11;99301.25;;;14.36;54.28
69982;BME280;57319;56.274;43.980;2023-04-29T03:55:37;99296.59;;;14.46;54.11
69982;BME280;57319;56.274;43.980;2023-04-29T03:58:02;99303.13;;;14.56;53.99
69982;BME280;57319;56.274;43.980;2023-04-29T04:00:31;99300.22;;;14.66;53.76
69982;BME280;57319;56.274;43.980;2023-04-29T04:02:58;99311.88;;;14.78;53.41
69982;BME280;57319;56.274;43.980;2023-04-29T04:05:24;99302.88;;;14.88;53.23
69982;BME280;57319;56.274;43.980;2023-04-29T04:07:53;99301.63;;;14.98;52.74
69982;BME280;57319;56.274;43.980;2023-04-29T04:10:19;99307.22;;;15.09;52.58
69982;BME280;57319;56.274;43.980;2023-04-29T04:12:45;99293.84;;;15.20;52.16
69982;BME280;57319;56.274;43.980;2023-04-29T04:15:12;99294.34;;;15.30;51.92
69982;BME280;57319;56.274;43.980;2023-04-29T04:17:38;99303.25;;;15.45;51.63
69982;BME280;57319;56.274;43.980;2023-04-29T04:20:04;99300.97;;;15.59;51.45
69982;BME280;57319;56.274;43.980;2023-04-29T04:22:30;99300.19;;;15.78;50.70
69982;BME280;57319;56.274;43.980;2023-04-29T04:24:55;99290.81;;;15.96;50.15
69982;BME280;57319;56.274;43.980;2023-04-29T04:27:21;99300.69;;;16.08;49.93
69982;BME280;57319;56.274;43.980;2023-04-29T04:29:47;99307.03;;;16.22;49.98
69982;BME280;57319;56.274;43.980;2023-04-29T04:32:13;99307.78;;;16.25;49.89
69982;BME280;57319;56.274;43.980;2023-04-29T04:34:38;99299.91;;;16.27;49.58
69982;BME280;57319;56.274;43.980;2023-04-29T04:37:05;99305.63;;;16.35;49.33
69982;BME280;57319;56.274;43.980;2023-04-29T04:39:31;99306.19;;;16.42;49.29
69982;BME280;57319;56.274;43.980;2023-04-29T04:41:57;99296.09;;;16.55;48.73
69982;BME280;57319;56.274;43.980;2023-04-29T04:44:22;99300.47;;;16.73;48.28
69982;BME280;57319;56.274;43.980;2023-04-29T04:46:49;99297.75;;;16.95;47.76
69982;BME280;57319;56.274;43.980;2023-04-29T04:49:16;99297.13;;;17.09;47.64
69982;BME280;57319;56.274;43.980;2023-04-29T04:51:45;99291.34;;;17.22;46.99
69982;BME280;57319;56.274;43.980;2023-04-29T04:54:11;99293.19;;;17.37;46.65
69982;BME280;57319;56.274;43.980;2023-04-29T04:56:37;99291.31;;;17.58;46.04
69982;BME280;57319;56.274;43.980;2023-04-29T04:59:03;99295.78;;;17.74;45.27
69982;BME280;57319;56.274;43.980;2023-04-29T05:01:29;99290.94;;;17.84;45.17
69982;BME280;57319;56.274;43.980;2023-04-29T05:03:55;99286.84;;;17.97;45.02
69982;BME280;57319;56.274;43.980;2023-04-29T05:06:20;99289.38;;;17.99;44.95
69982;BME280;57319;56.274;43.980;2023-04-29T05:08:46;99289.81;;;18.07;44.44
69982;BME280;57319;56.274;43.980;2023-04-29T05:11:21;99284.38;;;18.11;44.05
69982;BME280;57319;56.274;43.980;2023-04-29T05:13:47;99288.25;;;18.20;43.41
69982;BME280;57319;56.274;43.980;2023-04-29T05:16:14;99285.50;;;18.23;43.20
69982;BME280;57319;56.274;43.980;2023-04-29T05:18:42;99284.44;;;18.27;43.21
69982;BME280;57319;56.274;43.980;2023-04-29T05:21:10;99281.81;;;18.27;42.96
69982;BME280;57319;56.274;43.980;2023-04-29T05:23:36;99283.19;;;18.35;42.92
69982;BME280;57319;56.274;43.980;2023-04-29T05:26:03;99278.31;;;18.44;43.02
69982;BME280;57319;56.274;43.980;2023-04-29T05:28:28;99274.72;;;18.47;42.73
69982;BME280;57319;56.274;43.980;2023-04-29T05:30:54;99271.28;;;18.46;42.19
69982;BME280;57319;56.274;43.980;2023-04-29T05:33:20;99278.56;;;18.56;41.93
69982;BME280;57319;56.274;43.980;2023-04-29T05:35:46;99283.31;;;18.65;41.87
69982;BME280;57319;56.274;43.980;2023-04-29T05:38:12;99272.63;;;18.70;41.48
69982;BME280;57319;56.274;43.980;2023-04-29T05:40:38;99272.63;;;18.70;41.13
69982;BME280;57319;56.274;43.980;2023-04-29T05:43:04;99261.97;;;18.74;40.86
69982;BME280;57319;56.274;43.980;2023-04-29T05:45:29;99272.13;;;18.79;40.90
69982;BME280;57319;56.274;43.980;2023-04-29T05:47:55;99263.84;;;18.88;40.77
69982;BME280;57319;56.274;43.980;2023-04-29T05:50:21;99272.00;;;18.98;40.99
69982;BME280;57319;56.274;43.980;2023-04-29T05:52:46;99274.09;;;19.07;40.48
69982;BME280;57319;56.274;43.980;2023-04-29T05:55:12;99271.41;;;19.09;39.86
69982;BME280;57319;56.274;43.980;2023-04-29T05:57:38;99264.91;;;19.16;40.04
69982;BME280;57319;56.274;43.980;2023-04-29T06:00:04;99268.44;;;19.31;40.33
69982;BME280;57319;56.274;43.980;2023-04-29T06:02:31;99267.75;;;19.43;40.10
69982;BME280;57319;56.274;43.980;2023-04-29T06:04:58;99258.53;;;19.52;39.73
69982;BME280;57319;56.274;43.980;2023-04-29T06:07:23;99261.81;;;19.56;38.96
69982;BME280;57319;56.274;43.980;2023-04-29T06:09:51;99259.28;;;19.54;39.31
69982;BME280;57319;56.274;43.980;2023-04-29T06:12:16;99258.59;;;19.66;39.40
69982;BME280;57319;56.274;43.980;2023-04-29T06:14:42;99268.41;;;19.77;39.65
69982;BME280;57319;56.274;43.980;2023-04-29T06:17:08;99264.81;;;19.80;38.68
69982;BME280;57319;56.274;43.980;2023-04-29T06:19:34;99255.19;;;19.80;38.77
69982;BME280;57319;56.274;43.980;2023-04-29T06:21:59;99264.81;;;19.80;38.69
69982;BME280;57319;56.274;43.980;2023-04-29T06:24:25;99261.25;;;19.81;38.71
69982;BME280;57319;56.274;43.980;2023-04-29T06:26:51;99259.06;;;19.73;38.76
69982;BME280;57319;56.274;43.980;2023-04-29T06:29:16;99260.63;;;19.61;38.40
69982;BME280;57319;56.274;43.980;2023-04-29T06:31:42;99259.06;;;19.73;38.45
69982;BME280;57319;56.274;43.980;2023-04-29T06:34:08;99260.56;;;19.77;38.87
69982;BME280;57319;56.274;43.980;2023-04-29T06:36:33;99260.47;;;19.79;39.13
69982;BME280;57319;56.274;43.980;2023-04-29T06:38:59;99247.25;;;19.82;39.43
69982;BME280;57319;56.274;43.980;2023-04-29T06:41:24;99249.53;;;19.88;39.53
69982;BME280;57319;56.274;43.980;2023-04-29T06:43:51;99249.81;;;19.98;39.57
69982;BME280;57319;56.274;43.980;2023-04-29T06:46:16;99245.59;;;20.10;39.30
69982;BME280;57319;56.274;43.980;2023-04-29T06:48:42;99240.50;;;20.23;38.71
69982;BME280;57319;56.274;43.980;2023-04-29T06:51:08;99246.84;;;20.33;38.22
69982;BME280;57319;56.274;43.980;2023-04-29T06:53:34;99253.44;;;20.39;38.64
69982;BME280;57319;56.274;43.980;2023-04-29T06:55:59;99252.78;;;20.49;38.72
69982;BME280;57319;56.274;43.980;2023-04-29T06:58:25;99249.50;;;20.60;37.98
69982;BME280;57319;56.274;43.980;2023-04-29T07:00:51;99258.09;;;20.77;38.22
69982;BME280;57319;56.274;43.980;2023-04-29T07:03:17;99251.06;;;20.92;37.30
69982;BME280;57319;56.274;43.980;2023-04-29T07:05:43;99243.81;;;21.10;37.41
69982;BME280;57319;56.274;43.980;2023-04-29T07:08:13;99246.19;;;21.27;36.90
69982;BME280;57319;56.274;43.980;2023-04-29T07:10:39;99241.69;;;21.29;36.67
69982;BME280;57319;56.274;43.980;2023-04-29T07:13:08;99240.41;;;21.22;36.71
69982;BME280;57319;56.274;43.980;2023-04-29T07:15:35;99243.00;;;21.09;36.73
69982;BME280;57319;56.274;43.980;2023-04-29T07:18:03;99248.22;;;21.09;35.94
69982;BME280;57319;56.274;43.980;2023-04-29T07:20:29;99232.00;;;21.17;36.09
69982;BME280;57319;56.274;43.980;2023-04-29T07:22:55;99226.19;;;21.26;36.29
69982;BME280;57319;56.274;43.980;2023-04-29T07:25:21;99225.59;;;21.35;36.39
69982;BME280;57319;56.274;43.980;2023-04-29T07:27:47;99231.16;;;21.44;36.24
69982;BME280;57319;56.274;43.980;2023-04-29T07:30:13;99239.91;;;21.57;35.88
69982;BME280;57319;56.274;43.980;2023-04-29T07:32:39;99232.28;;;21.67;35.85
69982;BME280;57319;56.274;43.980;2023-04-29T07:35:05;99223.25;;;21.84;35.55
69982;BME280;57319;56.274;43.980;2023-04-29T07:37:31;99220.00;;;22.06;35.01
69982;BME280;57319;56.274;43.980;2023-04-29T07:39:57;99225.22;;;22.32;35.09
69982;BME280;57319;56.274;43.980;2023-04-29T07:42:23;99214.94;;;22.55;34.66
69982;BME280;57319;56.274;43.980;2023-04-29T07:44:48;99213.69;;;22.47;34.23
69982;BME280;57319;56.274;43.980;2023-04-29T07:47:14;99210.66;;;22.41;34.76
69982;BME280;57319;56.274;43.980;2023-04-29T07:49:40;99209.94;;;22.39;34.87
69982;BME280;57319;56.274;43.980;2023-04-29T07:52:07;99218.69;;;22.63;34.76
69982;BME280;57319;56.274;43.980;2023-04-29T07:54:37;99206.91;;;22.69;34.30
69982;BME280;57319;56.274;43.980;2023-04-29T07:57:04;99207.47;;;22.61;34.40
69982;BME280;57319;56.274;43.980;2023-04-29T07:59:31;99212.47;;;22.27;34.79
69982;BME280;57319;56.274;43.980;2023-04-29T08:01:57;99204.00;;;22.11;35.10
69982;BME280;57319;56.274;43.980;2023-04-29T08:04:23;99196.53;;;22.05;35.29
69982;BME280;57319;56.274;43.980;2023-04-29T08:06:49;99196.63;;;22.16;35.27
69982;BME280;57319;56.274;43.980;2023-04-29T08:09:15;99195.28;;;22.23;35.39
69982;BME280;57319;56.274;43.980;2023-04-29T08:11:41;99208.03;;;22.28;34.50
69982;BME280;57319;56.274;43.980;2023-04-29T08:14:07;99199.47;;;22.26;34.22
69982;BME280;57319;56.274;43.980;2023-04-29T08:16:33;99191.94;;;22.34;33.68
69982;BME280;57319;56.274;43.980;2023-04-29T08:18:59;99192.41;;;22.52;33.15
69982;BME280;57319;56.274;43.980;2023-04-29T08:21:25;99189.44;;;22.57;32.99
69982;BME280;57319;56.274;43.980;2023-04-29T08:23:52;99203.28;;;22.59;32.54
69982;BME280;57319;56.274;43.980;2023-04-29T08:26:18;99184.59;;;22.63;32.34
69982;BME280;57319;56.274;43.980;2023-04-29T08:28:43;99178.34;;;22.77;32.35
69982;BME280;57319;56.274;43.980;2023-04-29T08:31:19;99171.31;;;22.78;32.02
69982;BME280;57319;56.274;43.980;2023-04-29T08:33:45;99171.38;;;22.89;32.63
69982;BME280;57319;56.274;43.980;2023-04-29T08:36:11;99168.66;;;22.91;32.42
69982;BME280;57319;56.274;43.980;2023-04-29T08:38:37;99157.91;;;22.94;31.87
69982;BME280;57319;56.274;43.980;2023-04-29T08:41:03;99176.41;;;22.92;31.97
69982;BME280;57319;56.274;43.980;2023-04-29T08:43:29;99178.00;;;22.82;31.87
69982;BME280;57319;56.274;43.980;2023-04-29T08:45:57;99159.38;;;22.98;31.84
69982;BME280;57319;56.274;43.980;2023-04-29T08:48:24;99159.09;;;23.14;31.51
69982;BME280;57319;56.274;43.980;2023-04-29T08:50:51;99148.72;;;23.12;31.18
69982;BME280;57319;56.274;43.980;2023-04-29T08:53:17;99159.25;;;23.24;31.30
69982;BME280;57319;56.274;43.980;2023-04-29T08:55:45;99163.09;;;23.31;31.19
69982;BME280;57319;56.274;43.980;2023-04-29T08:58:12;99174.41;;;23.31;30.98
69982;BME280;57319;56.274;43.980;2023-04-29T09:00:39;99166.38;;;23.21;30.85
69982;BME280;57319;56.274;43.980;2023-04-29T09:03:30;99171.47;;;23.12;30.74
69982;BME280;57319;56.274;43.980;2023-04-29T09:06:00;99174.09;;;23.12;30.81
69982;BME280;57319;56.274;43.980;2023-04-29T09:08:26;99184.81;;;23.09;31.06
69982;BME280;57319;56.274;43.980;2023-04-29T09:10:53;99183.22;;;22.95;30.72
69982;BME280;57319;56.274;43.980;2023-04-29T09:13:24;99169.84;;;22.98;31.25
69982;BME280;57319;56.274;43.980;2023-04-29T09:15:50;99181.19;;;22.98;31.29
69982;BME280;57319;56.274;43.980;2023-04-29T09:18:44;99167.19;;;22.86;31.35
69982;BME280;57319;56.274;43.980;2023-04-29T09:23:38;99163.41;;;22.91;31.80
69982;BME280;57319;56.274;43.980;2023-04-29T09:26:04;99166.81;;;23.04;31.55
69982;BME280;57319;56.274;43.980;2023-04-29T09:28:30;99163.75;;;23.21;31.13
69982;BME280;57319;56.274;43.980;2023-04-29T09:30:56;99153.09;;;23.36;31.64
69982;BME280;57319;56.274;43.980;2023-04-29T09:33:21;99159.41;;;23.33;31.80
69982;BME280;57319;56.274;43.980;2023-04-29T09:35:47;99158.09;;;23.39;31.91
69982;BME280;57319;56.274;43.980;2023-04-29T09:38:14;99154.16;;;23.45;31.09
69982;BME280;57319;56.274;43.980;2023-04-29T09:40:43;99161.91;;;23.35;30.91
69982;BME280;57319;56.274;43.980;2023-04-29T09:43:14;99154.81;;;23.24;31.00
69982;BME280;57319;56.274;43.980;2023-04-29T09:45:46;99139.88;;;23.13;31.09
69982;BME280;57319;56.274;43.980;2023-04-29T09:48:14;99144.13;;;23.03;31.33
69982;BME280;57319;56.274;43.980;2023-04-29T09:50:42;99157.84;;;23.07;30.79
69982;BME280;57319;56.274;43.980;2023-04-29T09:53:09;99143.50;;;23.24;30.24
69982;BME280;57319;56.274;43.980;2023-04-29T09:58:31;99130.66;;;23.54;29.91
69982;BME280;57319;56.274;43.980;2023-04-29T10:01:07;99140.59;;;23.62;30.16
69982;BME280;57319;56.274;43.980;2023-04-29T10:03:35;99149.41;;;23.61;30.30
69982;BME280;57319;56.274;43.980;2023-04-29T10:06:04;99139.28;;;23.57;29.66
69982;BME280;57319;56.274;43.980;2023-04-29T10:08:30;99135.31;;;23.51;29.62
69982;BME280;57319;56.274;43.980;2023-04-29T10:10:59;99142.59;;;23.59;29.87
69982;BME280;57319;56.274;43.980;2023-04-29T10:13:26;99131.38;;;23.68;29.89
69982;BME280;57319;56.274;43.980;2023-04-29T10:16:18;99127.31;;;23.52;29.98
69982;BME280;57319;56.274;43.980;2023-04-29T10:18:51;99125.38;;;23.32;30.07
69982;BME280;57319;56.274;43.980;2023-04-29T10:21:23;99137.69;;;23.43;30.07
69982;BME280;57319;56.274;43.980;2023-04-29T10:23:52;99132.44;;;23.43;30.32
69982;BME280;57319;56.274;43.980;2023-04-29T10:26:19;99133.25;;;23.32;30.64
69982;BME280;57319;56.274;43.980;2023-04-29T10:28:46;99127.25;;;23.18;30.65
69982;BME280;57319;56.274;43.980;2023-04-29T10:31:13;99130.06;;;23.04;31.19
69982;BME280;57319;56.274;43.980;2023-04-29T10:33:42;99136.38;;;22.77;31.70
69982;BME280;57319;56.274;43.980;2023-04-29T10:36:13;99152.22;;;22.51;31.96
69982;BME280;57319;56.274;43.980;2023-04-29T10:38:41;99165.28;;;22.27;33.99
69982;BME280;57319;56.274;43.980;2023-04-29T10:41:20;99170.03;;;21.96;35.46
69982;BME280;57319;56.274;43.980;2023-04-29T10:43:51;99168.91;;;21.62;36.45
69982;BME280;57319;56.274;43.980;2023-04-29T10:46:18;99174.38;;;21.31;36.71
69982;BME280;57319;56.274;43.980;2023-04-29T10:48:49;99201.84;;;21.11;37.14
69982;BME280;57319;56.274;43.980;2023-04-29T10:51:40;99250.38;;;20.75;40.53
69982;BME280;57319;56.274;43.980;2023-04-29T10:54:16;99274.03;;;19.09;53.84
69982;BME280;57319;56.274;43.980;2023-04-29T10:56:51;99246.78;;;17.82;58.72
69982;BME280;57319;56.274;43.980;2023-04-29T11:01:58;99258.03;;;16.73;65.27
69982;BME280;57319;56.274;43.980;2023-04-29T11:04:23;99283.31;;;16.50;67.51
69982;BME280;57319;56.274;43.980;2023-04-29T11:06:53;99302.91;;;16.18;66.82
69982;BME280;57319;56.274;43.980;2023-04-29T11:14:49;99319.66;;;15.90;69.92
69982;BME280;57319;56.274;43.980;2023-04-29T11:17:16;99327.81;;;15.81;70.67
69982;BME280;57319;56.274;43.980;2023-04-29T11:19:46;99351.41;;;15.73;70.90
69982;BME280;57319;56.274;43.980;2023-04-29T11:27:15;99359.81;;;15.57;71.77
69982;BME280;57319;56.274;43.980;2023-04-29T11:29:41;99375.56;;;15.53;71.99
69982;BME280;57319;56.274;43.980;2023-04-29T11:32:07;99389.56;;;15.49;72.77
69982;BME280;57319;56.274;43.980;2023-04-29T11:34:33;99373.53;;;15.39;72.83
69982;BME280;57319;56.274;43.980;2023-04-29T11:36:58;99371.75;;;15.39;74.26
69982;BME280;57319;56.274;43.980;2023-04-29T11:39:26;99362.41;;;15.35;75.81
69982;BME280;57319;56.274;43.980;2023-04-29T11:41:51;99364.06;;;15.38;75.50
69982;BME280;57319;56.274;43.980;2023-04-29T11:44:27;99367.66;;;15.34;75.95
69982;BME280;57319;56.274;43.980;2023-04-29T11:46:52;99366.84;;;15.33;76.43
69982;BME280;57319;56.274;43.980;2023-04-29T11:49:19;99363.44;;;15.31;76.81
69982;BME280;57319;56.274;43.980;2023-04-29T11:51:44;99372.25;;;15.27;76.57
69982;BME280;57319;56.274;43.980;2023-04-29T11:54:10;99372.91;;;15.32;76.80
69982;BME280;57319;56.274;43.980;2023-04-29T11:56:37;99360.91;;;15.30;78.73
69982;BME280;57319;56.274;43.980;2023-04-29T11:59:03;99350.75;;;15.23;78.91
69982;BME280;57319;56.274;43.980;2023-04-29T12:01:32;99358.34;;;15.06;78.99
69982;BME280;57319;56.274;43.980;2023-04-29T12:03:58;99370.50;;;15.04;78.23
69982;BME280;57319;56.274;43.980;2023-04-29T12:06:27;99369.81;;;14.99;79.92
69982;BME280;57319;56.274;43.980;2023-04-29T12:08:53;99365.63;;;14.96;79.66
69982;BME280;57319;56.274;43.980;2023-04-29T12:11:19;99376.25;;;14.88;80.17
69982;BME280;57319;56.274;43.980;2023-04-29T12:13:45;99366.28;;;14.78;79.28
69982;BME280;57319;56.274;43.980;2023-04-29T12:16:11;99374.94;;;14.76;78.66
69982;BME280;57319;56.274;43.980;2023-04-29T12:18:37;99366.22;;;14.79;78.66
69982;BME280;57319;56.274;43.980;2023-04-29T12:21:03;99359.19;;;14.83;79.00
69982;BME280;57319;56.274;43.980;2023-04-29T12:23:29;99359.81;;;14.89;78.98
69982;BME280;57319;56.274;43.980;2023-04-29T12:25:57;99367.41;;;14.94;79.35
69982;BME280;57319;56.274;43.980;2023-04-29T12:28:24;99368.16;;;14.98;79.64
69982;BME280;57319;56.274;43.980;2023-04-29T12:30:51;99359.75;;;14.91;80.62
69982;BME280;57319;56.274;43.980;2023-04-29T12:33:25;99356.59;;;14.83;81.35
69982;BME280;57319;56.274;43.980;2023-04-29T12:35:54;99366.84;;;14.86;81.71
69982;BME280;57319;56.274;43.980;2023-04-29T12:38:24;99369.72;;;14.78;82.29
69982;BME280;57319;56.274;43.980;2023-04-29T12:40:57;99374.94;;;14.76;82.08
69982;BME280;57319;56.274;43.980;2023-04-29T12:43:27;99371.53;;;14.76;81.49
69982;BME280;57319;56.274;43.980;2023-04-29T12:46:06;99372.28;;;14.80;81.17
69982;BME280;57319;56.274;43.980;2023-04-29T12:48:34;99385.78;;;14.88;80.60
69982;BME280;57319;56.274;43.980;2023-04-29T12:51:01;99389.97;;;14.92;80.77
69982;BME280;57319;56.274;43.980;2023-04-29T12:53:30;99399.53;;;14.90;82.14
69982;BME280;57319;56.274;43.980;2023-04-29T12:55:57;99408.97;;;14.67;82.87
69982;BME280;57319;56.274;43.980;2023-04-29T12:58:23;99414.44;;;14.06;81.58
69982;BME280;57319;56.274;43.980;2023-04-29T13:00:49;99418.03;;;13.73;82.77
69982;BME280;57319;56.274;43.980;2023-04-29T13:03:15;99422.91;;;13.54;83.20
69982;BME280;57319;56.274;43.980;2023-04-29T13:05:41;99429.13;;;13.19;82.33
69982;BME280;57319;56.274;43.980;2023-04-29T13:08:07;99424.53;;;12.97;81.68
69982;BME280;57319;56.274;43.980;2023-04-29T13:10:34;99427.66;;;12.77;81.67
69982;BME280;57319;56.274;43.980;2023-04-29T13:12:59;99433.56;;;12.49;81.53
69982;BME280;57319;56.274;43.980;2023-04-29T13:15:26;99436.94;;;12.17;82.26